createdAt,value
2023-01-01T00:03:32.518Z,99050.41
2023-01-01T00:08:37.510Z,99058.28
2023-01-01T00:13:42.780Z,99054.22
2023-01-01T00:18:45.699Z,99043.41
2023-01-01T00:23:49.947Z,99050.00
2023-01-01T00:28:53.119Z,99059.22
2023-01-01T00:33:56.539Z,99066.31
2023-01-01T00:39:02.839Z,99070.47
2023-01-01T00:44:05.823Z,99081.22
2023-01-01T00:49:08.804Z,99080.38
2023-01-01T00:54:13.384Z,99083.06
2023-01-01T00:59:16.322Z,99078.56
2023-01-01T01:04:19.215Z,99060.41
2023-01-01T01:09:23.545Z,99069.09
2023-01-01T01:14:26.464Z,99088.78
2023-01-01T01:19:29.489Z,99099.00
2023-01-01T01:24:33.785Z,99105.09
2023-01-01T01:29:36.675Z,99113.81
2023-01-01T01:34:39.742Z,99113.72
2023-01-01T01:39:46.749Z,99108.72
2023-01-01T01:44:56.733Z,99115.75
2023-01-01T01:50:05.268Z,99117.97
2023-01-01T01:55:10.992Z,99115.09
2023-01-01T02:00:15.338Z,99114.22
2023-01-01T02:05:19.904Z,99125.09
2023-01-01T02:10:24.198Z,99119.66
2023-01-01T02:15:31.505Z,99122.28
2023-01-01T02:20:41.940Z,99113.47
2023-01-01T02:25:58.988Z,99124.66
2023-01-01T02:31:03.461Z,99117.34
2023-01-01T02:36:08.177Z,99120.84
2023-01-01T02:41:15.213Z,99113.03
2023-01-01T02:51:30.519Z,99123.88
2023-01-01T02:56:40.949Z,99115.75
2023-01-01T03:01:50.998Z,99119.31
2023-01-01T03:07:01.117Z,99107.69
2023-01-01T03:12:10.984Z,99104.97
2023-01-01T03:17:22.671Z,99097.91
2023-01-01T03:22:31.406Z,99096.13
2023-01-01T03:27:38.575Z,99102.31
2023-01-01T03:33:01.794Z,99093.34
2023-01-01T03:38:09.386Z,99086.34
2023-01-01T03:43:18.288Z,99080.78
2023-01-01T03:48:22.625Z,99091.25
2023-01-01T03:53:38.428Z,99092.38
2023-01-01T03:58:46.136Z,99089.66
2023-01-01T04:03:51.290Z,99089.84
2023-01-01T04:08:59.623Z,99096.66
2023-01-01T04:14:02.597Z,99096.47
2023-01-01T04:19:07.631Z,99099.94
2023-01-01T04:24:10.939Z,99100.19
2023-01-01T04:29:13.845Z,99098.41
2023-01-01T04:34:18.379Z,99110.47
2023-01-01T04:39:21.286Z,99113.72
2023-01-01T04:44:24.154Z,99118.75
2023-01-01T04:49:28.556Z,99115.97
2023-01-01T04:54:31.561Z,99120.22
2023-01-01T04:59:34.469Z,99125.09
2023-01-01T05:04:38.716Z,99109.97
2023-01-01T05:09:41.595Z,99121.81
2023-01-01T05:14:44.552Z,99118.16
2023-01-01T05:19:48.783Z,99114.56
2023-01-01T05:24:51.634Z,99118.75
2023-01-01T05:29:54.488Z,99120.38
2023-01-01T05:34:58.740Z,99121.66
2023-01-01T05:40:01.667Z,99140.09
2023-01-01T05:45:05.088Z,99136.94
2023-01-01T05:55:12.460Z,99142.13
2023-01-01T06:00:16.519Z,99134.84
2023-01-01T06:05:20.756Z,99141.75
2023-01-01T06:10:23.605Z,99138.38
2023-01-01T06:15:26.704Z,99146.53
2023-01-01T06:20:30.989Z,99149.91
2023-01-01T06:25:35.543Z,99158.47
2023-01-01T06:30:38.673Z,99152.88
2023-01-01T06:35:44.271Z,99170.31
2023-01-01T06:40:56.803Z,99162.06
2023-01-01T06:46:04.137Z,99165.44
2023-01-01T06:51:11.146Z,99179.38
2023-01-01T06:56:14.259Z,99186.91
2023-01-01T07:01:19.219Z,99201.09
2023-01-01T07:06:24.952Z,99197.88
2023-01-01T07:11:28.673Z,99218.69
2023-01-01T07:16:31.562Z,99217.34
2023-01-01T07:21:43.395Z,99210.53
2023-01-01T07:26:47.025Z,99212.53
2023-01-01T07:31:49.957Z,99218.06
2023-01-01T07:36:55.302Z,99245.50
2023-01-01T07:41:58.260Z,99248.16
2023-01-01T07:47:04.789Z,99257.78
2023-01-01T07:52:09.062Z,99258.16
2023-01-01T07:57:12.674Z,99262.97
2023-01-01T08:02:15.681Z,99291.47
2023-01-01T08:07:20.069Z,99306.38
2023-01-01T08:12:23.072Z,99301.81
2023-01-01T08:17:26.023Z,99307.00
2023-01-01T08:22:30.382Z,99318.03
2023-01-01T08:27:33.427Z,99318.06
2023-01-01T08:32:36.391Z,99314.47
2023-01-01T08:37:40.672Z,99328.50
2023-01-01T08:42:43.538Z,99336.19
2023-01-01T08:47:46.508Z,99333.88
2023-01-01T08:52:50.830Z,99350.94
2023-01-01T08:57:53.740Z,99336.56
2023-01-01T09:02:56.656Z,99333.53
2023-01-01T09:08:00.953Z,99345.22
2023-01-01T09:13:03.932Z,99359.34
2023-01-01T09:18:07.128Z,99368.78
2023-01-01T09:23:12.460Z,99359.41
2023-01-01T09:28:18.159Z,99368.06
2023-01-01T09:33:24.797Z,99375.78
2023-01-01T09:38:29.056Z,99371.44
2023-01-01T09:43:41.568Z,99371.53
2023-01-01T09:48:54.411Z,99359.97
2023-01-01T09:54:03.424Z,99358.38
2023-01-01T09:59:06.339Z,99350.84
2023-01-01T10:04:28.350Z,99346.50
2023-01-01T10:09:41.630Z,99367.25
2023-01-01T10:14:50.467Z,99358.34
2023-01-01T10:19:55.813Z,99357.75
2023-01-01T10:25:02.929Z,99370.94
2023-01-01T10:30:15.335Z,99366.09
2023-01-01T10:35:22.977Z,99365.50
2023-01-01T10:40:31.586Z,99384.13
2023-01-01T10:45:38.645Z,99376.81
2023-01-01T10:50:47.450Z,99372.53
2023-01-01T10:55:58.302Z,99351.94
2023-01-01T11:01:02.760Z,99368.56
2023-01-01T11:06:11.767Z,99366.66
2023-01-01T11:11:22.384Z,99367.28
2023-01-01T11:16:26.627Z,99363.13
2023-01-01T11:21:29.578Z,99355.56
2023-01-01T11:26:34.273Z,99372.78
2023-01-01T11:31:40.016Z,99368.38
2023-01-01T11:36:42.935Z,99353.88
2023-01-01T11:41:49.459Z,99348.59
2023-01-01T11:46:52.490Z,99341.47
2023-01-01T11:51:55.648Z,99352.03
2023-01-01T11:57:05.069Z,99360.47
2023-01-01T12:02:14.559Z,99350.38
2023-01-01T12:07:22.086Z,99351.69
2023-01-01T12:12:31.906Z,99350.78
2023-01-01T12:17:39.322Z,99348.47
2023-01-01T12:22:42.959Z,99349.72
2023-01-01T12:28:04.495Z,99342.38
2023-01-01T12:33:29.331Z,99338.38
2023-01-01T12:39:08.494Z,99329.31
2023-01-01T12:44:26.770Z,99339.66
2023-01-01T12:49:47.670Z,99350.91
2023-01-01T12:55:36.568Z,99343.63
2023-01-01T13:00:44.387Z,99325.84
2023-01-01T13:05:51.549Z,99329.22
2023-01-01T13:10:57.547Z,99328.59
2023-01-01T13:16:02.122Z,99327.81
2023-01-01T13:21:19.874Z,99307.94
2023-01-01T13:26:49.129Z,99315.59
2023-01-01T13:32:07.599Z,99329.91
2023-01-01T13:37:53.467Z,99330.56
2023-01-01T13:43:07.455Z,99332.97
2023-01-01T13:48:26.115Z,99340.84
2023-01-01T13:53:46.648Z,99333.31
2023-01-01T13:59:07.844Z,99349.16
2023-01-01T14:04:28.461Z,99358.28
2023-01-01T14:09:31.362Z,99377.13
2023-01-01T14:14:36.250Z,99381.47
2023-01-01T14:19:42.464Z,99388.19
2023-01-01T14:24:48.306Z,99397.34
2023-01-01T14:29:52.902Z,99398.94
2023-01-01T14:35:04.094Z,99401.66
2023-01-01T14:40:20.915Z,99412.84
2023-01-01T14:45:25.401Z,99432.06
2023-01-01T14:50:32.408Z,99438.53
2023-01-01T14:55:41.383Z,99449.59
2023-01-01T15:00:44.636Z,99460.75
2023-01-01T15:05:59.745Z,99463.06
2023-01-01T15:11:05.135Z,99459.06
2023-01-01T15:16:18.389Z,99463.78
2023-01-01T15:21:42.679Z,99460.56
2023-01-01T15:26:50.589Z,99467.94
2023-01-01T15:31:57.421Z,99464.28
2023-01-01T15:37:13.648Z,99456.25
2023-01-01T15:42:24.871Z,99468.63
2023-01-01T15:47:27.786Z,99447.41
2023-01-01T15:52:33.208Z,99460.63
2023-01-01T15:57:36.239Z,99449.59
2023-01-01T16:02:39.355Z,99457.09
2023-01-01T16:07:44.041Z,99452.00
2023-01-01T16:12:46.909Z,99454.66
2023-01-01T16:17:49.923Z,99456.38
2023-01-01T16:22:54.232Z,99462.81
2023-01-01T16:27:58.293Z,99463.28
2023-01-01T16:33:01.889Z,99464.19
2023-01-01T16:38:06.187Z,99469.31
2023-01-01T16:43:16.922Z,99466.59
2023-01-01T16:48:19.804Z,99483.13
2023-01-01T16:53:24.080Z,99477.72
2023-01-01T17:03:49.976Z,99466.94
2023-01-01T17:08:54.298Z,99475.44
2023-01-01T17:13:58.632Z,99478.72
2023-01-01T17:19:17.648Z,99473.34
2023-01-01T17:24:23.330Z,99469.88
2023-01-01T17:29:27.058Z,99471.88
2023-01-01T17:34:29.970Z,99461.41
2023-01-01T17:39:34.259Z,99452.22
2023-01-01T17:44:37.186Z,99459.22
2023-01-01T17:49:41.230Z,99448.56
2023-01-01T17:54:45.567Z,99446.94
2023-01-01T17:59:48.520Z,99458.75
2023-01-01T18:04:52.250Z,99439.72
2023-01-01T18:09:56.591Z,99451.03
2023-01-01T18:14:59.501Z,99454.38
2023-01-01T18:20:02.537Z,99463.88
2023-01-01T18:25:07.865Z,99468.63
2023-01-01T18:30:11.329Z,99462.19
2023-01-01T18:35:14.256Z,99469.72
2023-01-01T18:40:19.591Z,99467.56
2023-01-01T18:45:24.535Z,99475.88
2023-01-01T18:50:29.799Z,99475.28
2023-01-01T18:55:34.086Z,99470.38
2023-01-01T19:00:38.325Z,99463.84
2023-01-01T19:05:41.264Z,99465.66
2023-01-01T19:10:48.203Z,99474.09
2023-01-01T19:15:54.759Z,99473.59
2023-01-01T19:21:03.529Z,99471.50
2023-01-01T19:26:15.622Z,99475.69
2023-01-01T19:31:18.892Z,99466.47
2023-01-01T19:36:22.178Z,99468.41
2023-01-01T19:41:26.421Z,99462.56
2023-01-01T19:46:29.661Z,99453.41
2023-01-01T19:51:32.595Z,99458.34
2023-01-01T19:56:36.832Z,99453.63
2023-01-01T20:01:39.934Z,99444.09
2023-01-01T20:06:43.034Z,99442.25
2023-01-01T20:11:50.730Z,99439.03
2023-01-01T20:16:53.912Z,99442.59
2023-01-01T20:22:15.102Z,99437.44
2023-01-01T20:27:24.269Z,99432.63
2023-01-01T20:32:28.095Z,99439.25
2023-01-01T20:37:40.623Z,99441.03
2023-01-01T20:42:44.945Z,99428.50
2023-01-01T20:47:47.851Z,99425.13
2023-01-01T20:52:50.799Z,99426.28
2023-01-01T20:57:55.095Z,99420.03
2023-01-01T21:02:58.110Z,99417.16
2023-01-01T21:08:01.037Z,99416.38
2023-01-01T21:13:05.519Z,99414.09
2023-01-01T21:18:11.830Z,99394.50
2023-01-01T21:23:18.293Z,99386.44
2023-01-01T21:28:23.280Z,99385.19
2023-01-01T21:33:28.426Z,99379.50
2023-01-01T21:38:32.800Z,99367.25
2023-01-01T21:43:39.813Z,99375.28
2023-01-01T21:48:47.100Z,99362.81
2023-01-01T21:53:50.155Z,99350.28
2023-01-01T21:59:12.217Z,99352.97
2023-01-01T22:04:21.264Z,99347.44
2023-01-01T22:09:26.471Z,99342.44
2023-01-01T22:14:38.796Z,99326.06
2023-01-01T22:19:42.370Z,99337.69
2023-01-01T22:24:48.139Z,99342.09
2023-01-01T22:29:52.489Z,99327.88
2023-01-01T22:35:00.313Z,99325.25
2023-01-01T22:40:04.587Z,99313.69
2023-01-01T22:45:14.969Z,99320.22
2023-01-01T22:50:22.671Z,99314.44
2023-01-01T22:55:25.614Z,99317.78
2023-01-01T23:00:29.873Z,99292.81
2023-01-01T23:05:32.795Z,99299.47
2023-01-01T23:10:35.820Z,99290.00
2023-01-01T23:15:58.008Z,99285.78
2023-01-01T23:21:02.351Z,99275.22
2023-01-01T23:26:06.560Z,99266.28
2023-01-01T23:31:13.104Z,99257.19
2023-01-01T23:36:16.039Z,99252.28
2023-01-01T23:41:18.983Z,99250.81
2023-01-01T23:46:23.621Z,99259.59
2023-01-01T23:51:26.753Z,99260.53
2023-01-01T23:56:29.669Z,99237.94
